Time;durP1;ratioP1;P1;durP2;ratioP2;P2;SDS_P1;SDS_P2;PMS_P1;PMS_P2;Temp;Humidity;BMP_temperature;BMP_pressure;BME280_temperature;BME280_humidity;BME280_pressure;Samples;Min_cycle;Max_cycle;Signal;HPM_P1;HPM_P2
2023/04/17 00:00:35;;;;;;;;;;;;;;;15.52;67.06;102338.66;1274329;23;605;-68
2023/04/17 00:01:26;;;;;;;;;;;;;;;15.51;66.54;102342.31;1272781;23;678;-68
2023/04/17 00:02:17;;;;;;;;;;;;;;;15.52;66.55;102341.34;1271548;23;666;-68
2023/04/17 00:03:10;;;;;;;;;;;;;;;15.51;66.72;102343.16;1272542;23;653;-68
2023/04/17 00:04:01;;;;;;;;;;;;;;;15.48;66.67;102339.78;1272867;23;554;-66
2023/04/17 00:04:52;;;;;;;;;;;;;;;15.48;66.87;102340.66;1272731;23;653;-68
2023/04/17 00:05:45;;;;;;;;;;;;;;;15.48;66.80;102351.41;1273672;23;1959;-68
2023/04/17 00:06:36;;;;;;;;;;;;;;;15.48;66.79;102346.03;1272828;23;634;-67
2023/04/17 00:07:27;;;;;;;;;;;;;;;15.51;66.62;102342.31;1271371;23;562;-67
2023/04/17 00:08:17;;;;;;;;;;;;;;;15.50;66.77;102344.13;1272578;23;641;-67
2023/04/17 00:09:08;;;;;;;;;;;;;;;15.51;66.82;102343.16;1274272;23;621;-68
2023/04/17 00:09:58;;;;;;;;;;;;;;;15.50;66.75;102344.13;1272572;23;640;-68
2023/04/17 00:10:48;;;;;;;;;;;;;;;15.50;66.52;102348.63;1272458;23;610;-68
2023/04/17 00:11:39;;;;;;;;;;;;;;;15.48;66.80;102343.34;1272562;23;602;-66
2023/04/17 00:12:29;;;;;;;;;;;;;;;15.47;66.81;102344.31;1272595;23;622;-68
2023/04/17 00:13:20;;;;;;;;;;;;;;;15.47;66.53;102338.94;1272449;23;677;-68
2023/04/17 00:14:10;;;;;;;;;;;;;;;15.46;66.54;102339.88;1272743;23;670;-68
2023/04/17 00:15:00;;;;;;;;;;;;;;;15.47;66.38;102338.06;1274391;23;645;-68
2023/04/17 00:15:51;;;;;;;;;;;;;;;15.45;66.49;102346.22;1272492;23;614;-68
2023/04/17 00:16:41;;;;;;;;;;;;;;;15.46;66.29;102339.88;1272597;23;625;-66
2023/04/17 00:17:32;;;;;;;;;;;;;;;15.47;66.68;102338.94;1272434;23;638;-67
2023/04/17 00:18:22;;;;;;;;;;;;;;;15.46;66.59;102339.03;1272564;23;657;-68
2023/04/17 00:19:13;;;;;;;;;;;;;;;15.46;66.77;102339.03;1274183;23;613;-68
2023/04/17 00:20:09;;;;;;;;;;;;;;;15.46;66.36;102331.84;1272618;23;869;-68
2023/04/17 00:21:00;;;;;;;;;;;;;;;15.47;66.43;102338.94;1271539;23;650;-68
2023/04/17 00:21:50;;;;;;;;;;;;;;;15.46;66.55;102339.88;1272351;23;606;-68
2023/04/17 00:22:40;;;;;;;;;;;;;;;15.48;66.58;102334.44;1271231;23;677;-68
2023/04/17 00:23:31;;;;;;;;;;;;;;;15.48;66.66;102339.78;1273040;23;637;-68
2023/04/17 00:24:21;;;;;;;;;;;;;;;15.47;66.49;102338.06;1273476;23;664;-68
2023/04/17 00:25:13;;;;;;;;;;;;;;;15.47;66.33;102328.19;1272588;23;954;-68
2023/04/17 00:26:04;;;;;;;;;;;;;;;15.49;66.33;102334.34;1272776;23;637;-68
2023/04/17 00:26:56;;;;;;;;;;;;;;;15.47;66.22;102341.63;1272906;23;657;-68
2023/04/17 00:27:46;;;;;;;;;;;;;;;15.46;66.77;102333.66;1271834;23;677;-68
2023/04/17 00:28:36;;;;;;;;;;;;;;;15.49;66.74;102336.16;1271634;23;646;-68
2023/04/17 00:29:27;;;;;;;;;;;;;;;15.48;66.66;102334.44;1272701;23;611;-68
2023/04/17 00:30:17;;;;;;;;;;;;;;;15.47;66.45;102338.06;1273283;23;653;-69
2023/04/17 00:31:08;;;;;;;;;;;;;;;15.47;66.68;102333.56;1272520;23;602;-68
2023/04/17 00:31:58;;;;;;;;;;;;;;;15.48;66.23;102337.13;1272718;23;744;-68
2023/04/17 00:32:49;;;;;;;;;;;;;;;15.48;66.43;102334.44;1272787;23;617;-68
2023/04/17 00:33:39;;;;;;;;;;;;;;;15.48;66.41;102335.28;1271407;23;673;-66
2023/04/17 00:34:30;;;;;;;;;;;;;;;15.49;66.46;102344.22;1272993;23;649;-68
2023/04/17 00:35:20;;;;;;;;;;;;;;;15.47;66.65;102333.56;1273310;23;638;-67
2023/04/17 00:36:12;;;;;;;;;;;;;;;15.47;66.39;102338.06;1272325;23;653;-68
2023/04/17 00:37:03;;;;;;;;;;;;;;;15.45;66.71;102335.47;1271805;23;644;-68
2023/04/17 00:37:53;;;;;;;;;;;;;;;15.44;66.74;102339.13;1272560;23;645;-68
2023/04/17 00:38:43;;;;;;;;;;;;;;;15.44;66.48;102332.88;1272487;23;684;-68
2023/04/17 00:39:34;;;;;;;;;;;;;;;15.44;66.46;102335.56;1272694;23;800;-68
2023/04/17 00:40:24;;;;;;;;;;;;;;;15.44;66.72;102327.50;1272587;23;617;-68
2023/04/17 00:41:15;;;;;;;;;;;;;;;15.42;66.44;102332.97;1272414;23;625;-69
2023/04/17 00:42:05;;;;;;;;;;;;;;;15.41;66.53;102333.94;1272862;23;676;-68
2023/04/17 00:42:56;;;;;;;;;;;;;;;15.43;66.39;102334.69;1271535;23;637;-68
2023/04/17 00:43:46;;;;;;;;;;;;;;;15.44;66.85;102336.44;1272865;23;660;-69
2023/04/17 00:44:37;;;;;;;;;;;;;;;15.43;66.61;102337.38;1273313;23;641;-68
2023/04/17 00:45:27;;;;;;;;;;;;;;;15.45;66.38;102331.94;1272644;23;668;-69
2023/04/17 00:46:17;;;;;;;;;;;;;;;15.44;66.49;102327.50;1274132;23;641;-68
2023/04/17 00:47:08;;;;;;;;;;;;;;;15.42;66.84;102330.28;1272509;23;656;-68
2023/04/17 00:47:58;;;;;;;;;;;;;;;15.42;66.48;102332.97;1271707;23;649;-68
2023/04/17 00:48:49;;;;;;;;;;;;;;;15.42;66.78;102335.66;1271627;23;633;-68
2023/04/17 00:49:40;;;;;;;;;;;;;;;15.43;66.78;102329.31;1272446;23;617;-68
2023/04/17 00:50:30;;;;;;;;;;;;;;;15.43;67.00;102332.00;1272006;23;652;-68
2023/04/17 00:51:20;;;;;;;;;;;;;;;15.42;67.38;102329.41;1272369;23;649;-68
2023/04/17 00:52:11;;;;;;;;;;;;;;;15.42;67.09;102324.03;1272626;23;656;-68
2023/04/17 00:53:01;;;;;;;;;;;;;;;15.44;67.12;102328.38;1272612;23;661;-68
2023/04/17 00:53:52;;;;;;;;;;;;;;;15.45;66.94;102332.78;1272286;23;638;-68
2023/04/17 00:54:42;;;;;;;;;;;;;;;15.44;66.71;102330.19;1271928;23;626;-68
2023/04/17 00:55:33;;;;;;;;;;;;;;;15.43;66.63;102333.84;1272122;23;606;-67
2023/04/17 00:56:23;;;;;;;;;;;;;;;15.44;67.06;102328.38;1272741;23;664;-67
2023/04/17 00:57:14;;;;;;;;;;;;;;;15.42;66.71;102338.34;1272176;23;630;-68
2023/04/17 00:58:04;;;;;;;;;;;;;;;15.43;67.00;102336.53;1272340;23;692;-68
2023/04/17 00:58:55;;;;;;;;;;;;;;;15.42;66.83;102329.41;1274384;23;618;-68
2023/04/17 00:59:45;;;;;;;;;;;;;;;15.41;66.86;102328.56;1272783;23;637;-68
2023/04/17 01:00:36;;;;;;;;;;;;;;;15.41;67.33;102327.69;1271892;23;685;-68
2023/04/17 01:01:26;;;;;;;;;;;;;;;15.42;67.16;102326.72;1272542;23;688;-68
2023/04/17 01:02:16;;;;;;;;;;;;;;;15.41;66.97;102328.56;1274174;23;648;-68
2023/04/17 01:03:07;;;;;;;;;;;;;;;15.40;66.94;102332.22;1272429;23;594;-68
2023/04/17 01:03:58;;;;;;;;;;;;;;;15.38;66.85;102328.78;1272366;23;661;-68
2023/04/17 01:04:49;;;;;;;;;;;;;;;15.39;66.80;102330.50;1271494;23;638;-68
2023/04/17 01:05:39;;;;;;;;;;;;;;;15.40;67.07;102320.63;1271822;23;1904;-68
2023/04/17 01:06:30;;;;;;;;;;;;;;;15.41;67.03;102333.06;1272576;23;708;-68
2023/04/17 01:07:21;;;;;;;;;;;;;;;15.40;66.83;102328.69;1271863;23;645;-68
2023/04/17 01:08:11;;;;;;;;;;;;;;;15.40;66.82;102332.22;1272530;23;657;-68
2023/04/17 01:09:02;;;;;;;;;;;;;;;15.41;66.90;102335.75;1274151;23;751;-68
2023/04/17 01:09:52;;;;;;;;;;;;;;;15.37;67.35;102327.03;1272471;23;614;-68
2023/04/17 01:10:43;;;;;;;;;;;;;;;15.41;66.92;102333.94;1272327;23;638;-68
2023/04/17 01:11:33;;;;;;;;;;;;;;;15.40;67.43;102331.38;1274337;23;711;-68
2023/04/17 01:12:24;;;;;;;;;;;;;;;15.43;67.42;102333.84;1273432;23;645;-68
2023/04/17 01:13:14;;;;;;;;;;;;;;;15.43;67.31;102333.84;1271926;23;683;-68
2023/04/17 01:14:04;;;;;;;;;;;;;;;15.42;67.12;102330.28;1271021;23;777;-68
2023/04/17 01:14:55;;;;;;;;;;;;;;;15.41;67.08;102336.63;1272945;23;1053;-68
2023/04/17 01:15:45;;;;;;;;;;;;;;;15.41;67.07;102333.06;1273392;23;904;-68
2023/04/17 01:16:38;;;;;;;;;;;;;;;15.40;67.02;102329.53;1272396;23;630;-68
2023/04/17 01:17:28;;;;;;;;;;;;;;;15.41;67.14;102328.56;1272729;23;672;-68
2023/04/17 01:18:18;;;;;;;;;;;;;;;15.41;66.84;102333.94;1272644;23;627;-68
2023/04/17 01:19:09;;;;;;;;;;;;;;;15.39;66.90;102330.50;1272542;23;661;-68
2023/04/17 01:19:59;;;;;;;;;;;;;;;15.38;67.04;102339.50;1272008;23;678;-68
2023/04/17 01:20:50;;;;;;;;;;;;;;;15.38;67.04;102339.50;1272563;23;648;-68
2023/04/17 01:21:40;;;;;;;;;;;;;;;15.40;67.21;102332.22;1272418;23;638;-68
2023/04/17 01:22:31;;;;;;;;;;;;;;;15.40;66.99;102337.59;1272580;23;661;-68
2023/04/17 01:23:21;;;;;;;;;;;;;;;15.40;67.12;102332.22;1272380;23;676;-68
2023/04/17 01:24:12;;;;;;;;;;;;;;;15.40;66.76;102326.84;1274153;23;637;-68
2023/04/17 01:25:02;;;;;;;;;;;;;;;15.39;67.05;102335.00;1274305;23;629;-68
2023/04/17 01:25:53;;;;;;;;;;;;;;;15.38;66.95;102323.41;1274464;23;1922;-68
2023/04/17 01:26:43;;;;;;;;;;;;;;;15.38;67.05;102328.78;1272660;23;677;-68
2023/04/17 01:27:34;;;;;;;;;;;;;;;15.39;66.83;102333.19;1272497;23;653;-68
2023/04/17 01:28:25;;;;;;;;;;;;;;;15.37;66.74;102332.41;1272419;23;637;-68
2023/04/17 01:29:15;;;;;;;;;;;;;;;15.38;67.02;102328.78;1271041;23;610;-68
2023/04/17 01:30:05;;;;;;;;;;;;;;;15.39;67.00;102325.13;1272920;23;653;-68
2023/04/17 01:30:56;;;;;;;;;;;;;;;15.38;67.06;102328.78;1273459;23;590;-68
2023/04/17 01:31:46;;;;;;;;;;;;;;;15.38;66.65;102331.47;1272737;23;633;-68
2023/04/17 01:32:37;;;;;;;;;;;;;;;15.37;66.88;102327.03;1272612;23;629;-68
2023/04/17 01:33:27;;;;;;;;;;;;;;;15.38;66.98;102322.53;1272538;23;756;-68
2023/04/17 01:34:17;;;;;;;;;;;;;;;15.38;66.65;102334.16;1272442;23;645;-68
2023/04/17 01:35:08;;;;;;;;;;;;;;;15.39;66.89;102333.19;1274353;23;629;-68
2023/04/17 01:35:58;;;;;;;;;;;;;;;15.39;66.80;102330.50;1272501;23;673;-68
2023/04/17 01:36:49;;;;;;;;;;;;;;;15.38;66.53;102326.09;1272664;23;656;-68
2023/04/17 01:37:39;;;;;;;;;;;;;;;15.40;66.50;102329.53;1272602;23;657;-68
2023/04/17 01:38:29;;;;;;;;;;;;;;;15.40;66.81;102331.38;1272631;23;598;-68
2023/04/17 01:39:20;;;;;;;;;;;;;;;15.39;66.53;102333.19;1272222;23;650;-68
2023/04/17 01:40:11;;;;;;;;;;;;;;;15.38;66.52;102333.28;1274125;23;680;-68
2023/04/17 01:41:08;;;;;;;;;;;;;;;15.36;66.83;102327.13;1272242;23;661;-68
2023/04/17 01:41:58;;;;;;;;;;;;;;;15.36;66.67;102333.38;1272434;23;633;-67
2023/04/17 01:42:49;;;;;;;;;;;;;;;15.36;66.82;102336.06;1272382;23;614;-68
2023/04/17 01:43:40;;;;;;;;;;;;;;;15.35;66.70;102330.78;1272644;23;697;-68
2023/04/17 01:44:30;;;;;;;;;;;;;;;15.36;66.86;102335.19;1271937;23;626;-68
2023/04/17 01:45:20;;;;;;;;;;;;;;;15.35;66.80;102331.63;1272392;23;630;-68
2023/04/17 01:46:11;;;;;;;;;;;;;;;15.35;66.78;102339.69;1272538;23;610;-68
2023/04/17 01:47:01;;;;;;;;;;;;;;;15.36;66.76;102338.75;1272801;23;635;-68
2023/04/17 01:47:52;;;;;;;;;;;;;;;15.36;66.86;102336.06;1272355;23;657;-68
2023/04/17 01:48:43;;;;;;;;;;;;;;;15.35;67.13;102334.31;1272317;23;621;-68
2023/04/17 01:49:33;;;;;;;;;;;;;;;15.35;66.95;102334.31;1272297;23;602;-68
2023/04/17 01:50:24;;;;;;;;;;;;;;;15.38;67.06;102344.03;1271338;23;602;-68
2023/04/17 01:51:14;;;;;;;;;;;;;;;15.38;66.79;102339.50;1272285;23;692;-68
2023/04/17 01:52:05;;;;;;;;;;;;;;;15.38;66.88;102333.28;1274179;23;618;-68
2023/04/17 01:52:55;;;;;;;;;;;;;;;15.37;67.28;102340.47;1272773;23;696;-68
2023/04/17 01:53:45;;;;;;;;;;;;;;;15.38;67.04;102341.34;1272823;23;688;-67
2023/04/17 01:54:36;;;;;;;;;;;;;;;15.38;67.41;102344.88;1271038;23;614;-68
2023/04/17 01:55:26;;;;;;;;;;;;;;;15.38;67.11;102344.03;1272909;23;680;-68
2023/04/17 01:56:17;;;;;;;;;;;;;;;15.37;66.73;102335.09;1273166;23;697;-68
2023/04/17 01:57:08;;;;;;;;;;;;;;;15.36;66.76;102341.44;1271277;23;708;-68
2023/04/17 01:57:58;;;;;;;;;;;;;;;15.35;66.98;102342.38;1272578;23;641;-68
2023/04/17 01:58:50;;;;;;;;;;;;;;;15.35;66.83;102337.00;1272362;23;606;-68
2023/04/17 01:59:40;;;;;;;;;;;;;;;15.33;67.13;102346.97;1272352;23;649;-68
2023/04/17 02:00:31;;;;;;;;;;;;;;;15.34;66.73;102342.47;1274320;23;621;-67
2023/04/17 02:01:21;;;;;;;;;;;;;;;15.34;66.64;102348.72;1272261;23;626;-68
2023/04/17 02:02:11;;;;;;;;;;;;;;;15.35;66.91;102345.06;1272749;23;628;-68
2023/04/17 02:03:02;;;;;;;;;;;;;;;15.35;66.63;102345.06;1272255;23;670;-68
2023/04/17 02:03:52;;;;;;;;;;;;;;;15.34;66.85;102347.84;1271781;23;573;-68
2023/04/17 02:04:43;;;;;;;;;;;;;;;15.33;66.94;102346.97;1272287;23;645;-68
2023/04/17 02:05:33;;;;;;;;;;;;;;;15.33;66.91;102346.97;1272518;23;662;-68
2023/04/17 02:06:25;;;;;;;;;;;;;;;15.32;66.85;102349.75;1272655;23;638;-68
2023/04/17 02:07:16;;;;;;;;;;;;;;;15.32;66.92;102347.94;1272573;23;595;-66
2023/04/17 02:08:06;;;;;;;;;;;;;;;15.34;66.87;102347.84;1271887;23;716;-68
2023/04/17 02:08:58;;;;;;;;;;;;;;;15.33;66.73;102348.81;1272432;23;661;-68
2023/04/17 02:09:48;;;;;;;;;;;;;;;15.34;66.99;102343.34;1271452;23;610;-68
2023/04/17 02:10:38;;;;;;;;;;;;;;;15.35;67.09;102341.53;1273175;23;642;-68
2023/04/17 02:11:29;;;;;;;;;;;;;;;15.36;67.02;102345.94;1272450;23;661;-68
2023/04/17 02:12:20;;;;;;;;;;;;;;;15.35;66.98;102350.44;1272103;23;673;-68
2023/04/17 02:13:10;;;;;;;;;;;;;;;15.35;66.58;102353.13;1271601;23;598;-66
2023/04/17 02:14:01;;;;;;;;;;;;;;;15.36;67.01;102354.00;1273087;23;633;-68
2023/04/17 02:14:51;;;;;;;;;;;;;;;15.36;66.99;102348.63;1272294;23;670;-66
2023/04/17 02:15:41;;;;;;;;;;;;;;;15.36;67.00;102356.69;1272437;23;665;-68
2023/04/17 02:16:32;;;;;;;;;;;;;;;15.33;66.77;102352.34;1271648;23;594;-68
2023/04/17 02:17:23;;;;;;;;;;;;;;;15.33;66.86;102349.66;1273549;23;648;-68
2023/04/17 02:18:13;;;;;;;;;;;;;;;15.34;66.81;102348.72;1272037;23;702;-67
2023/04/17 02:19:03;;;;;;;;;;;;;;;15.34;66.76;102348.72;1271290;23;817;-68
2023/04/17 02:19:54;;;;;;;;;;;;;;;15.35;66.68;102354.94;1272974;23;621;-68
2023/04/17 02:20:44;;;;;;;;;;;;;;;15.34;66.79;102351.41;1273358;23;606;-68
2023/04/17 02:21:35;;;;;;;;;;;;;;;15.35;66.99;102349.56;1272236;23;665;-68
2023/04/17 02:22:25;;;;;;;;;;;;;;;15.34;66.66;102348.72;1272429;23;661;-68
2023/04/17 02:23:16;;;;;;;;;;;;;;;15.33;66.79;102349.66;1274261;23;653;-68
2023/04/17 02:24:06;;;;;;;;;;;;;;;15.34;66.92;102348.72;1272339;23;677;-67
2023/04/17 02:24:57;;;;;;;;;;;;;;;15.32;67.15;102347.94;1272257;23;626;-68
2023/04/17 02:25:47;;;;;;;;;;;;;;;15.34;66.73;102345.16;1272562;23;1881;-68
2023/04/17 02:26:37;;;;;;;;;;;;;;;15.31;66.72;102343.53;1272708;23;657;-68
2023/04/17 02:27:28;;;;;;;;;;;;;;;15.32;66.81;102349.75;1272332;23;768;-68
2023/04/17 02:28:19;;;;;;;;;;;;;;;15.33;66.52;102351.50;1270921;23;622;-68
2023/04/17 02:29:09;;;;;;;;;;;;;;;15.33;66.75;102346.13;1272889;23;681;-68
2023/04/17 02:30:00;;;;;;;;;;;;;;;15.33;67.04;102346.13;1273152;23;649;-68
2023/04/17 02:30:50;;;;;;;;;;;;;;;15.31;66.87;102348.91;1272372;23;649;-68
2023/04/17 02:31:41;;;;;;;;;;;;;;;15.34;66.63;102342.47;1274079;23;621;-68
2023/04/17 02:32:31;;;;;;;;;;;;;;;15.34;66.86;102348.72;1271805;23;617;-68
2023/04/17 02:33:21;;;;;;;;;;;;;;;15.34;66.88;102339.78;1272270;23;660;-68
2023/04/17 02:34:12;;;;;;;;;;;;;;;15.34;66.65;102346.03;1271642;23;626;-68
2023/04/17 02:35:02;;;;;;;;;;;;;;;15.32;66.90;102345.25;1272533;23;665;-68
2023/04/17 02:35:53;;;;;;;;;;;;;;;15.32;66.86;102342.56;1271549;23;684;-68
2023/04/17 02:36:43;;;;;;;;;;;;;;;15.32;66.85;102345.25;1272206;23;543;-68
2023/04/17 02:37:34;;;;;;;;;;;;;;;15.33;66.39;102340.75;1272392;23;637;-68
2023/04/17 02:38:24;;;;;;;;;;;;;;;15.32;66.41;102344.38;1272249;23;700;-68
2023/04/17 02:39:15;;;;;;;;;;;;;;;15.31;66.56;102334.59;1272618;23;661;-68
2023/04/17 02:40:06;;;;;;;;;;;;;;;15.32;66.69;102339.00;1271812;23;669;-68
2023/04/17 02:40:56;;;;;;;;;;;;;;;15.32;66.37;102350.63;1271551;23;660;-68
2023/04/17 02:41:46;;;;;;;;;;;;;;;15.32;66.59;102347.06;1272372;23;629;-68
2023/04/17 02:42:37;;;;;;;;;;;;;;;15.32;66.75;102345.25;1273863;23;614;-68
2023/04/17 02:43:27;;;;;;;;;;;;;;;15.32;66.57;102347.94;1272265;23;539;-68
2023/04/17 02:44:18;;;;;;;;;;;;;;;15.33;66.65;102338.06;1274016;23;629;-69
2023/04/17 02:45:08;;;;;;;;;;;;;;;15.32;66.44;102339.88;1272331;23;790;-68
2023/04/17 02:46:00;;;;;;;;;;;;;;;15.33;66.64;102346.13;1272381;23;1963;-68
2023/04/17 02:46:50;;;;;;;;;;;;;;;15.29;66.64;102340.06;1272014;23;668;-68
2023/04/17 02:47:41;;;;;;;;;;;;;;;15.27;66.51;102336.59;1272517;23;637;-69
2023/04/17 02:48:31;;;;;;;;;;;;;;;15.28;66.25;102338.34;1272600;23;677;-66
2023/04/17 02:49:21;;;;;;;;;;;;;;;15.27;66.72;102345.53;1272257;23;630;-68
2023/04/17 02:50:12;;;;;;;;;;;;;;;15.29;66.35;102340.06;1272097;23;633;-68
2023/04/17 02:51:02;;;;;;;;;;;;;;;15.29;66.42;102338.25;1272528;23;614;-68
2023/04/17 02:51:53;;;;;;;;;;;;;;;15.29;66.31;102340.94;1272417;23;618;-68
2023/04/17 02:52:43;;;;;;;;;;;;;;;15.31;66.55;102337.28;1272315;23;665;-68
2023/04/17 02:53:34;;;;;;;;;;;;;;;15.29;66.56;102346.28;1271300;23;672;-68
2023/04/17 02:54:24;;;;;;;;;;;;;;;15.28;66.79;102333.81;1272150;23;658;-68
2023/04/17 02:55:15;;;;;;;;;;;;;;;15.28;66.32;102346.38;1272276;23;680;-68
2023/04/17 02:56:05;;;;;;;;;;;;;;;15.27;66.47;102337.47;1272458;23;602;-68
2023/04/17 02:56:58;;;;;;;;;;;;;;;15.28;66.26;102335.66;1272537;23;615;-68
2023/04/17 02:57:49;;;;;;;;;;;;;;;15.28;66.71;102338.34;1272258;23;598;-68
2023/04/17 02:58:43;;;;;;;;;;;;;;;15.27;66.61;102337.47;1272414;23;637;-68
2023/04/17 02:59:33;;;;;;;;;;;;;;;15.28;66.71;102344.56;1273132;23;652;-68
2023/04/17 03:00:25;;;;;;;;;;;;;;;15.27;66.32;102342.84;1272145;23;614;-68
2023/04/17 03:01:15;;;;;;;;;;;;;;;15.27;66.32;102336.59;1271278;23;1118;-68
2023/04/17 03:02:05;;;;;;;;;;;;;;;15.28;66.75;102338.34;1271668;23;617;-68
2023/04/17 03:02:56;;;;;;;;;;;;;;;15.26;66.51;102334.88;1271417;23;641;-68
2023/04/17 03:03:46;;;;;;;;;;;;;;;15.26;66.21;102338.41;1271157;23;704;-68
2023/04/17 03:04:37;;;;;;;;;;;;;;;15.27;66.11;102345.53;1272993;23;637;-68
2023/04/17 03:05:29;;;;;;;;;;;;;;;15.27;66.54;102341.97;1272981;23;656;-68
2023/04/17 03:06:20;;;;;;;;;;;;;;;15.26;66.15;102341.09;1271531;23;661;-68
2023/04/17 03:07:12;;;;;;;;;;;;;;;15.27;66.34;102340.16;1271383;23;622;-68
2023/04/17 03:08:02;;;;;;;;;;;;;;;15.28;66.46;102341.00;1271502;23;619;-68
2023/04/17 03:08:53;;;;;;;;;;;;;;;15.27;66.33;102339.28;1271366;23;594;-67
2023/04/17 03:09:45;;;;;;;;;;;;;;;15.26;66.75;102337.56;1271057;23;728;-68
2023/04/17 03:10:36;;;;;;;;;;;;;;;15.26;66.36;102340.25;1266638;23;630;-68
2023/04/17 03:11:26;;;;;;;;;;;;;;;15.24;66.59;102345.69;1272733;23;593;-68
2023/04/17 03:12:17;;;;;;;;;;;;;;;15.25;66.29;102342.06;1273134;23;629;-66
2023/04/17 03:13:07;;;;;;;;;;;;;;;15.25;66.34;102344.75;1272147;23;618;-68
2023/04/17 03:13:57;;;;;;;;;;;;;;;15.28;66.31;102338.34;1274058;23;613;-68
2023/04/17 03:14:48;;;;;;;;;;;;;;;15.27;66.36;102345.53;1272333;23;613;-68
2023/04/17 03:15:38;;;;;;;;;;;;;;;15.27;66.56;102344.66;1272133;23;669;-66
2023/04/17 03:16:29;;;;;;;;;;;;;;;15.23;66.59;102343.97;1273897;23;602;-68
2023/04/17 03:17:19;;;;;;;;;;;;;;;15.22;66.23;102342.28;1272273;23;614;-68
2023/04/17 03:18:10;;;;;;;;;;;;;;;15.25;66.56;102346.56;1273156;23;684;-68
2023/04/17 03:19:02;;;;;;;;;;;;;;;15.24;66.54;102337.66;1272411;23;657;-68
2023/04/17 03:19:52;;;;;;;;;;;;;;;15.24;66.62;102339.47;1270470;23;611;-68
2023/04/17 03:20:42;;;;;;;;;;;;;;;15.23;66.55;102332.38;1272317;23;725;-68
2023/04/17 03:21:33;;;;;;;;;;;;;;;15.23;66.33;102338.59;1271654;23;610;-69
2023/04/17 03:22:23;;;;;;;;;;;;;;;15.20;66.17;102336.13;1272618;23;1228;-68
2023/04/17 03:23:14;;;;;;;;;;;;;;;15.19;66.28;102336.22;1274411;23;645;-68
2023/04/17 03:24:04;;;;;;;;;;;;;;;15.21;66.49;102337.84;1272903;23;657;-66
2023/04/17 03:24:55;;;;;;;;;;;;;;;15.23;66.74;102335.91;1272710;23;665;-68
2023/04/17 03:25:45;;;;;;;;;;;;;;;15.23;66.55;102343.97;1272552;23;1942;-68
2023/04/17 03:26:35;;;;;;;;;;;;;;;15.26;66.58;102348.31;1272720;23;642;-68
2023/04/17 03:27:26;;;;;;;;;;;;;;;15.24;66.02;102342.16;1272548;23;670;-68
2023/04/17 03:28:17;;;;;;;;;;;;;;;15.24;66.27;102340.34;1271534;23;728;-67
2023/04/17 03:29:07;;;;;;;;;;;;;;;15.22;66.37;102334.22;1273145;23;669;-66
2023/04/17 03:29:58;;;;;;;;;;;;;;;15.22;66.35;102333.34;1274390;23;617;-68
2023/04/17 03:30:48;;;;;;;;;;;;;;;15.22;66.25;102336.91;1272230;23;633;-68
2023/04/17 03:31:39;;;;;;;;;;;;;;;15.22;66.41;102342.28;1271687;23;634;-68
2023/04/17 03:32:30;;;;;;;;;;;;;;;15.23;66.45;102340.41;1272166;23;657;-67
2023/04/17 03:33:20;;;;;;;;;;;;;;;15.23;66.71;102343.09;1272585;23;649;-67
2023/04/17 03:34:10;;;;;;;;;;;;;;;15.21;66.09;102340.53;1272775;23;689;-67
2023/04/17 03:35:01;;;;;;;;;;;;;;;15.22;66.27;102341.41;1272933;23;602;-67
2023/04/17 03:35:51;;;;;;;;;;;;;;;15.22;66.25;102336.91;1272773;23;599;-67
2023/04/17 03:36:42;;;;;;;;;;;;;;;15.23;66.48;102341.28;1272670;23;554;-66
2023/04/17 03:37:32;;;;;;;;;;;;;;;15.23;66.65;102345.78;1274330;23;606;-66
2023/04/17 03:38:22;;;;;;;;;;;;;;;15.23;66.55;102346.66;1271991;23;658;-66
2023/04/17 03:39:13;;;;;;;;;;;;;;;15.25;66.70;102349.25;1274352;23;610;-66
2023/04/17 03:40:05;;;;;;;;;;;;;;;15.24;66.30;102347.53;1272772;23;1222;-66
2023/04/17 03:40:55;;;;;;;;;;;;;;;15.22;66.42;102344.09;1272948;23;645;-66
2023/04/17 03:41:46;;;;;;;;;;;;;;;15.21;66.11;102342.38;1271440;23;614;-66
2023/04/17 03:42:36;;;;;;;;;;;;;;;15.20;66.40;102349.56;1273423;23;625;-66
2023/04/17 03:43:27;;;;;;;;;;;;;;;15.20;66.59;102346.00;1273771;23;641;-66
2023/04/17 03:44:18;;;;;;;;;;;;;;;15.21;66.21;102347.75;1272856;23;599;-66
2023/04/17 03:45:08;;;;;;;;;;;;;;;15.21;65.95;102348.59;1271378;23;653;-66
2023/04/17 03:45:58;;;;;;;;;;;;;;;15.21;66.10;102347.75;1272907;23;1901;-66
2023/04/17 03:46:49;;;;;;;;;;;;;;;15.20;65.99;102352.25;1272803;23;645;-66
2023/04/17 03:47:40;;;;;;;;;;;;;;;15.20;66.38;102354.06;1272907;23;692;-66
2023/04/17 03:48:31;;;;;;;;;;;;;;;15.19;66.57;102355.88;1272240;23;630;-66
2023/04/17 03:49:21;;;;;;;;;;;;;;;15.22;66.71;102357.53;1272702;23;606;-66
2023/04/17 03:50:11;;;;;;;;;;;;;;;15.20;66.29;102352.25;1272755;23;645;-66
2023/04/17 03:51:02;;;;;;;;;;;;;;;15.22;66.60;102354.84;1272445;23;654;-66
2023/04/17 03:51:52;;;;;;;;;;;;;;;15.21;66.39;102348.59;1272596;23;633;-66
2023/04/17 03:52:43;;;;;;;;;;;;;;;15.22;66.41;102354.84;1274316;23;743;-66
2023/04/17 03:53:33;;;;;;;;;;;;;;;15.23;66.62;102351.16;1271969;23;637;-66
2023/04/17 03:54:24;;;;;;;;;;;;;;;15.21;66.57;102351.28;1274303;23;712;-66
2023/04/17 03:55:15;;;;;;;;;;;;;;;15.22;66.45;102353.03;1272617;23;614;-66
2023/04/17 03:56:06;;;;;;;;;;;;;;;15.21;66.35;102350.41;1271537;23;622;-66
2023/04/17 03:56:56;;;;;;;;;;;;;;;15.18;66.17;102358.66;1273250;23;668;-66
2023/04/17 03:57:48;;;;;;;;;;;;;;;15.19;66.40;102355.88;1273346;23;641;-66
2023/04/17 03:58:39;;;;;;;;;;;;;;;15.18;66.51;102354.16;1271907;23;602;-66
2023/04/17 03:59:29;;;;;;;;;;;;;;;15.18;66.57;102353.28;1273752;23;669;-66
2023/04/17 04:00:20;;;;;;;;;;;;;;;15.19;66.58;102357.69;1272516;23;650;-66
2023/04/17 04:01:11;;;;;;;;;;;;;;;15.20;66.68;102354.06;1272575;23;1043;-66
2023/04/17 04:02:01;;;;;;;;;;;;;;;15.21;66.49;102359.34;1272610;23;649;-66
2023/04/17 04:02:52;;;;;;;;;;;;;;;15.22;66.52;102354.84;1274368;23;672;-66
2023/04/17 04:03:42;;;;;;;;;;;;;;;15.23;66.23;102359.22;1272453;23;638;-66
2023/04/17 04:04:33;;;;;;;;;;;;;;;15.22;66.34;102353.03;1273442;23;673;-66
2023/04/17 04:05:23;;;;;;;;;;;;;;;15.22;66.37;102352.16;1272511;23;630;-66
2023/04/17 04:06:19;;;;;;;;;;;;;;;15.22;66.19;102352.16;1272911;23;653;-66
2023/04/17 04:07:09;;;;;;;;;;;;;;;15.21;66.19;102356.66;1272580;23;626;-66
2023/04/17 04:07:59;;;;;;;;;;;;;;;15.20;66.08;102351.38;1272745;23;646;-66
2023/04/17 04:08:50;;;;;;;;;;;;;;;15.19;66.18;102358.56;1272324;23;602;-66
2023/04/17 04:09:41;;;;;;;;;;;;;;;15.20;66.05;102351.38;1271738;23;689;-66
2023/04/17 04:10:31;;;;;;;;;;;;;;;15.19;66.80;102357.69;1271849;23;626;-67
2023/04/17 04:11:21;;;;;;;;;;;;;;;15.17;66.37;102354.25;1272802;23;789;-67
2023/04/17 04:12:12;;;;;;;;;;;;;;;15.16;66.13;102357.88;1272383;23;630;-67
2023/04/17 04:13:02;;;;;;;;;;;;;;;15.17;66.37;102362.28;1272457;23;599;-66
2023/04/17 04:13:53;;;;;;;;;;;;;;;15.18;66.44;102358.66;1271567;23;688;-66
2023/04/17 04:14:43;;;;;;;;;;;;;;;15.17;66.50;102359.63;1272634;23;701;-66
2023/04/17 04:15:34;;;;;;;;;;;;;;;15.18;66.64;102353.28;1272557;23;676;-67
2023/04/17 04:16:24;;;;;;;;;;;;;;;15.18;66.64;102358.66;1271762;23;626;-66
2023/04/17 04:17:15;;;;;;;;;;;;;;;15.19;66.38;102360.38;1271823;23;610;-66
2023/04/17 04:18:05;;;;;;;;;;;;;;;15.17;66.65;102348.88;1272887;23;661;-66
2023/04/17 04:18:56;;;;;;;;;;;;;;;15.18;66.75;102353.28;1272867;23;693;-66
2023/04/17 04:19:46;;;;;;;;;;;;;;;15.17;66.29;102351.56;1271627;23;587;-67
2023/04/17 04:20:37;;;;;;;;;;;;;;;15.18;66.66;102348.78;1272570;23;668;-66
2023/04/17 04:21:27;;;;;;;;;;;;;;;15.19;66.41;102360.38;1271740;23;658;-66
2023/04/17 04:22:20;;;;;;;;;;;;;;;15.19;66.61;102363.06;1272516;23;676;-66
2023/04/17 04:23:11;;;;;;;;;;;;;;;15.18;66.64;102356.84;1271686;23;614;-66
2023/04/17 04:24:02;;;;;;;;;;;;;;;15.18;66.33;102350.59;1271507;23;660;-66
2023/04/17 04:24:52;;;;;;;;;;;;;;;15.15;66.68;102356.16;1272818;23;689;-66
2023/04/17 04:25:43;;;;;;;;;;;;;;;15.14;66.36;102357.97;1272235;23;1881;-66
2023/04/17 04:26:33;;;;;;;;;;;;;;;15.15;66.48;102354.34;1272660;23;614;-66
2023/04/17 04:27:24;;;;;;;;;;;;;;;15.15;66.37;102354.34;1272535;23;657;-66